RYR1YY EPKT-LICT
Flight info
| Callsign | RYR1YY |
|---|---|
| Flight time | 2h 12m |
| Altitude | 36000 |
| Route | TUSI4M TUSIN DCT UPLAV DCT MIKOV DCT PETOV DCT KOTOR DCT XAMIT DCT TEA DCT AMANO DCT ROSAS M742 PAL PAL1F |
| Aircraft | B738/M-SDE2E3FGHIRWXY/LB1 |
Departure
| Time | 2026-05-09 10:46 |
|---|---|
| Airport | Katowice Wojciech Korfanty International Airport (EPKT) |
Arrival
| Time | 2026-05-09 12:58 |
|---|---|
| Airport | Vincenzo Florio Airport Trapani-Birgi (LICT) |
| Time | Latitude | Longitude | Altitude | Speed | Heading |
|---|---|---|---|---|---|
| 2026-05-09 10:27 | 50.47185 | 19.07212 | 997 ft | 0 kts | 180° |
| 2026-05-09 10:37 | 50.47200 | 19.07210 | 999 ft | 2 kts | 169° |
| 2026-05-09 10:37 | 50.47216 | 19.07202 | 998 ft | 2 kts | 148° |
| 2026-05-09 10:37 | 50.47228 | 19.07185 | 997 ft | 2 kts | 119° |
| 2026-05-09 10:37 | 50.47234 | 19.07161 | 997 ft | 2 kts | 97° |
| 2026-05-09 10:38 | 50.47235 | 19.07142 | 999 ft | 1 kts | 90° |
| 2026-05-09 10:38 | 50.47235 | 19.07140 | 999 ft | 0 kts | 90° |
| 2026-05-09 10:40 | 50.47235 | 19.07148 | 1000 ft | 2 kts | 90° |
| 2026-05-09 10:40 | 50.47235 | 19.07182 | 1001 ft | 5 kts | 90° |
| 2026-05-09 10:40 | 50.47235 | 19.07247 | 1001 ft | 7 kts | 90° |
| 2026-05-09 10:40 | 50.47235 | 19.07341 | 1002 ft | 10 kts | 90° |
| 2026-05-09 10:41 | 50.47235 | 19.07459 | 1002 ft | 12 kts | 90° |
| 2026-05-09 10:41 | 50.47234 | 19.07598 | 1000 ft | 14 kts | 90° |
| 2026-05-09 10:41 | 50.47234 | 19.07758 | 1000 ft | 15 kts | 90° |
| 2026-05-09 10:41 | 50.47233 | 19.07933 | 1000 ft | 17 kts | 90° |
| 2026-05-09 10:42 | 50.47233 | 19.08124 | 1003 ft | 18 kts | 90° |
| 2026-05-09 10:42 | 50.47233 | 19.08314 | 997 ft | 17 kts | 90° |
| 2026-05-09 10:42 | 50.47232 | 19.08497 | 1000 ft | 16 kts | 90° |
| 2026-05-09 10:42 | 50.47232 | 19.08674 | 1003 ft | 16 kts | 90° |
| 2026-05-09 10:43 | 50.47231 | 19.08843 | 1003 ft | 15 kts | 90° |
| 2026-05-09 10:43 | 50.47231 | 19.09003 | 1003 ft | 15 kts | 90° |
| 2026-05-09 10:43 | 50.47231 | 19.09159 | 1001 ft | 14 kts | 90° |
| 2026-05-09 10:43 | 50.47230 | 19.09308 | 1003 ft | 13 kts | 90° |
| 2026-05-09 10:44 | 50.47288 | 19.09388 | 1001 ft | 13 kts | 2° |
| 2026-05-09 10:44 | 50.47377 | 19.09389 | 998 ft | 13 kts | 0° |
| 2026-05-09 10:44 | 50.47463 | 19.09390 | 1001 ft | 12 kts | 0° |
| 2026-05-09 10:44 | 50.47548 | 19.09390 | 999 ft | 12 kts | 354° |
| 2026-05-09 10:45 | 50.47596 | 19.09302 | 1000 ft | 12 kts | 274° |
| 2026-05-09 10:46 | 50.47562 | 19.04745 | 2067 ft | 170 kts | 272° |
| 2026-05-09 10:46 | 50.47573 | 19.02833 | 2959 ft | 179 kts | 272° |
| 2026-05-09 10:46 | 50.47589 | 19.00711 | 3290 ft | 207 kts | 272° |
| 2026-05-09 10:46 | 50.47603 | 18.98322 | 3531 ft | 228 kts | 271° |
| 2026-05-09 10:47 | 50.47614 | 18.95746 | 3831 ft | 248 kts | 271° |
| 2026-05-09 10:47 | 50.47618 | 18.92982 | 4462 ft | 256 kts | 270° |
| 2026-05-09 10:47 | 50.47590 | 18.90176 | 5320 ft | 257 kts | 269° |
| 2026-05-09 10:47 | 50.47552 | 18.87343 | 6111 ft | 261 kts | 268° |
| 2026-05-09 10:48 | 50.47512 | 18.84503 | 6902 ft | 263 kts | 268° |
| 2026-05-09 10:48 | 50.47472 | 18.81610 | 7653 ft | 267 kts | 268° |
| 2026-05-09 10:48 | 50.47432 | 18.78674 | 8410 ft | 270 kts | 268° |
| 2026-05-09 10:48 | 50.47391 | 18.75717 | 9208 ft | 272 kts | 268° |
| 2026-05-09 10:49 | 50.47350 | 18.72728 | 9980 ft | 275 kts | 268° |
| 2026-05-09 10:49 | 50.47308 | 18.69698 | 10564 ft | 284 kts | 268° |
| 2026-05-09 10:49 | 50.47262 | 18.66466 | 10740 ft | 308 kts | 268° |
| 2026-05-09 10:49 | 50.47211 | 18.63027 | 10909 ft | 329 kts | 267° |
| 2026-05-09 10:50 | 50.46780 | 18.59443 | 11306 ft | 340 kts | 247° |
| 2026-05-09 10:50 | 50.45482 | 18.56320 | 11965 ft | 345 kts | 226° |
| 2026-05-09 10:50 | 50.43531 | 18.54101 | 12665 ft | 350 kts | 208° |
| 2026-05-09 10:50 | 50.41314 | 18.52437 | 13342 ft | 355 kts | 206° |
| 2026-05-09 10:51 | 50.39076 | 18.50840 | 13975 ft | 359 kts | 206° |
| 2026-05-09 10:51 | 50.36791 | 18.49196 | 14592 ft | 363 kts | 207° |
| 2026-05-09 10:51 | 50.34499 | 18.47512 | 15214 ft | 365 kts | 207° |
| 2026-05-09 10:51 | 50.32190 | 18.45798 | 15822 ft | 368 kts | 207° |
| 2026-05-09 10:52 | 50.29789 | 18.44322 | 16391 ft | 375 kts | 194° |
| 2026-05-09 10:52 | 50.27153 | 18.44075 | 16971 ft | 384 kts | 175° |
| 2026-05-09 10:52 | 50.24536 | 18.44819 | 17565 ft | 388 kts | 171° |
| 2026-05-09 10:52 | 50.21867 | 18.45722 | 18116 ft | 393 kts | 170° |
| 2026-05-09 10:53 | 50.19190 | 18.46625 | 18619 ft | 397 kts | 171° |
| 2026-05-09 10:53 | 50.16461 | 18.47504 | 19126 ft | 399 kts | 171° |
| 2026-05-09 10:53 | 50.13758 | 18.48348 | 19648 ft | 401 kts | 171° |
| 2026-05-09 10:53 | 50.11005 | 18.49198 | 20148 ft | 404 kts | 172° |
| 2026-05-09 10:54 | 50.08225 | 18.50055 | 20633 ft | 407 kts | 172° |
| 2026-05-09 10:54 | 50.05466 | 18.50906 | 21119 ft | 409 kts | 171° |
| 2026-05-09 10:54 | 50.02651 | 18.51775 | 21607 ft | 412 kts | 171° |
| 2026-05-09 10:54 | 49.99828 | 18.52646 | 22073 ft | 414 kts | 172° |
| 2026-05-09 10:55 | 49.96986 | 18.53523 | 22548 ft | 417 kts | 171° |
| 2026-05-09 10:55 | 49.94132 | 18.54402 | 23006 ft | 419 kts | 171° |
| 2026-05-09 10:55 | 49.91259 | 18.55285 | 23456 ft | 421 kts | 171° |
| 2026-05-09 10:55 | 49.88387 | 18.55887 | 23839 ft | 420 kts | 184° |
| 2026-05-09 10:56 | 49.85532 | 18.55085 | 24190 ft | 415 kts | 204° |
| 2026-05-09 10:56 | 49.82992 | 18.53006 | 24603 ft | 411 kts | 218° |
| 2026-05-09 10:56 | 49.80938 | 18.49954 | 24967 ft | 409 kts | 233° |
| 2026-05-09 10:56 | 49.79219 | 18.46521 | 25337 ft | 410 kts | 234° |
| 2026-05-09 10:57 | 49.77505 | 18.42982 | 25690 ft | 411 kts | 235° |
| 2026-05-09 10:57 | 49.75784 | 18.39407 | 26049 ft | 413 kts | 235° |
| 2026-05-09 10:57 | 49.74054 | 18.35836 | 26411 ft | 414 kts | 235° |
| 2026-05-09 10:57 | 49.72330 | 18.32310 | 26771 ft | 415 kts | 235° |
| 2026-05-09 10:58 | 49.70571 | 18.28739 | 27110 ft | 417 kts | 235° |
| 2026-05-09 10:58 | 49.68801 | 18.25166 | 27435 ft | 419 kts | 234° |
| 2026-05-09 10:58 | 49.67019 | 18.21582 | 27767 ft | 420 kts | 234° |
| 2026-05-09 10:58 | 49.65231 | 18.17996 | 28095 ft | 421 kts | 235° |
| 2026-05-09 10:59 | 49.63458 | 18.14447 | 28405 ft | 423 kts | 235° |
| 2026-05-09 10:59 | 49.61654 | 18.10839 | 28696 ft | 424 kts | 235° |
| 2026-05-09 10:59 | 49.59839 | 18.07215 | 28977 ft | 426 kts | 235° |
| 2026-05-09 10:59 | 49.58020 | 18.03587 | 29306 ft | 426 kts | 235° |
| 2026-05-09 11:00 | 49.56215 | 17.99995 | 29783 ft | 423 kts | 235° |
| 2026-05-09 11:00 | 49.54432 | 17.96450 | 30257 ft | 420 kts | 235° |
| 2026-05-09 11:00 | 49.52642 | 17.92895 | 30614 ft | 418 kts | 235° |
| 2026-05-09 11:00 | 49.50855 | 17.89350 | 30911 ft | 418 kts | 235° |
| 2026-05-09 11:01 | 49.49071 | 17.85814 | 31219 ft | 417 kts | 235° |
| 2026-05-09 11:01 | 49.47313 | 17.82336 | 31570 ft | 415 kts | 235° |
| 2026-05-09 11:01 | 49.45546 | 17.78844 | 31939 ft | 412 kts | 236° |
| 2026-05-09 11:01 | 49.43782 | 17.75363 | 32255 ft | 411 kts | 236° |
| 2026-05-09 11:02 | 49.42025 | 17.71897 | 32540 ft | 410 kts | 236° |
| 2026-05-09 11:02 | 49.40289 | 17.68479 | 32871 ft | 409 kts | 236° |
| 2026-05-09 11:02 | 49.38546 | 17.65053 | 33229 ft | 406 kts | 236° |
| 2026-05-09 11:02 | 49.36810 | 17.61641 | 33546 ft | 404 kts | 236° |
| 2026-05-09 11:03 | 49.35076 | 17.58239 | 33809 ft | 404 kts | 236° |
| 2026-05-09 11:03 | 49.33343 | 17.54845 | 34091 ft | 403 kts | 236° |
| 2026-05-09 11:03 | 49.31586 | 17.51508 | 34304 ft | 404 kts | 233° |
| 2026-05-09 11:03 | 49.29716 | 17.48243 | 34446 ft | 406 kts | 232° |
| 2026-05-09 11:04 | 49.27819 | 17.45016 | 34595 ft | 407 kts | 232° |
| 2026-05-09 11:04 | 49.25915 | 17.41801 | 34779 ft | 407 kts | 231° |
| 2026-05-09 11:04 | 49.24009 | 17.38583 | 34935 ft | 408 kts | 231° |
| 2026-05-09 11:04 | 49.22118 | 17.35383 | 35097 ft | 409 kts | 231° |
| 2026-05-09 11:05 | 49.20209 | 17.32146 | 35242 ft | 410 kts | 231° |
| 2026-05-09 11:05 | 49.18292 | 17.28891 | 35395 ft | 410 kts | 231° |
| 2026-05-09 11:05 | 49.16373 | 17.25635 | 35547 ft | 411 kts | 231° |
| 2026-05-09 11:05 | 49.14481 | 17.22425 | 35712 ft | 411 kts | 231° |
| 2026-05-09 11:06 | 49.12565 | 17.19178 | 35875 ft | 411 kts | 231° |
| 2026-05-09 11:06 | 49.10645 | 17.15927 | 36031 ft | 412 kts | 231° |
| 2026-05-09 11:06 | 49.08723 | 17.12677 | 36138 ft | 413 kts | 231° |
| 2026-05-09 11:07 | 49.04859 | 17.06157 | 36148 ft | 414 kts | 231° |
| 2026-05-09 11:07 | 49.01024 | 16.99703 | 36140 ft | 412 kts | 231° |
| 2026-05-09 11:08 | 48.97175 | 16.93240 | 36142 ft | 411 kts | 230° |
| 2026-05-09 11:08 | 48.93323 | 16.86788 | 36139 ft | 410 kts | 230° |
| 2026-05-09 11:09 | 48.89483 | 16.80371 | 36145 ft | 410 kts | 230° |
| 2026-05-09 11:09 | 48.85659 | 16.73993 | 36140 ft | 410 kts | 230° |
| 2026-05-09 11:10 | 48.81807 | 16.67590 | 36138 ft | 410 kts | 230° |
| 2026-05-09 11:10 | 48.79699 | 16.64727 | 36122 ft | 415 kts | 218° |
| 2026-05-09 11:10 | 48.77194 | 16.62501 | 36137 ft | 419 kts | 209° |
| 2026-05-09 11:10 | 48.74452 | 16.60903 | 36126 ft | 425 kts | 198° |
| 2026-05-09 11:11 | 48.71531 | 16.59995 | 36148 ft | 428 kts | 195° |
| 2026-05-09 11:11 | 48.65658 | 16.58473 | 36139 ft | 430 kts | 194° |
| 2026-05-09 11:12 | 48.59743 | 16.56959 | 36135 ft | 431 kts | 195° |
| 2026-05-09 11:12 | 48.53851 | 16.55400 | 36131 ft | 432 kts | 195° |
| 2026-05-09 11:13 | 48.47920 | 16.53804 | 36135 ft | 432 kts | 195° |
| 2026-05-09 11:13 | 48.41991 | 16.52203 | 36133 ft | 432 kts | 195° |
| 2026-05-09 11:14 | 48.36112 | 16.50619 | 36128 ft | 432 kts | 195° |
| 2026-05-09 11:14 | 48.30195 | 16.49029 | 36123 ft | 431 kts | 195° |
| 2026-05-09 11:15 | 48.24294 | 16.47449 | 36130 ft | 430 kts | 195° |
| 2026-05-09 11:15 | 48.18398 | 16.45873 | 36125 ft | 429 kts | 195° |
| 2026-05-09 11:16 | 48.12533 | 16.44308 | 36125 ft | 427 kts | 195° |
| 2026-05-09 11:16 | 48.06688 | 16.42753 | 36125 ft | 426 kts | 195° |
| 2026-05-09 11:17 | 48.00874 | 16.41209 | 36127 ft | 425 kts | 195° |
| 2026-05-09 11:17 | 47.95043 | 16.39664 | 36129 ft | 425 kts | 195° |
| 2026-05-09 11:18 | 47.89255 | 16.38134 | 36128 ft | 424 kts | 196° |
| 2026-05-09 11:18 | 47.83433 | 16.36599 | 36122 ft | 424 kts | 196° |
| 2026-05-09 11:19 | 47.77606 | 16.35065 | 36120 ft | 424 kts | 195° |
| 2026-05-09 11:19 | 47.71814 | 16.33545 | 36121 ft | 424 kts | 195° |
| 2026-05-09 11:20 | 47.65983 | 16.32018 | 36112 ft | 424 kts | 195° |
| 2026-05-09 11:20 | 47.60197 | 16.30506 | 36112 ft | 424 kts | 196° |
| 2026-05-09 11:21 | 47.54375 | 16.28987 | 36116 ft | 425 kts | 196° |
| 2026-05-09 11:21 | 47.48532 | 16.27467 | 36112 ft | 425 kts | 195° |
| 2026-05-09 11:22 | 47.42707 | 16.25956 | 36113 ft | 425 kts | 195° |
| 2026-05-09 11:22 | 47.37855 | 16.24699 | 36106 ft | 426 kts | 195° |
| 2026-05-09 11:23 | 47.31062 | 16.22943 | 36111 ft | 426 kts | 195° |
| 2026-05-09 11:23 | 47.26203 | 16.21691 | 36096 ft | 426 kts | 195° |
| 2026-05-09 11:24 | 47.20361 | 16.20189 | 36105 ft | 426 kts | 195° |
| 2026-05-09 11:24 | 47.14505 | 16.18685 | 36096 ft | 425 kts | 195° |
| 2026-05-09 11:25 | 47.08710 | 16.17200 | 36094 ft | 425 kts | 195° |
| 2026-05-09 11:25 | 47.02878 | 16.15711 | 36096 ft | 424 kts | 195° |
| 2026-05-09 11:26 | 46.97107 | 16.14238 | 36086 ft | 423 kts | 195° |
| 2026-05-09 11:26 | 46.91273 | 16.12753 | 36082 ft | 423 kts | 195° |
| 2026-05-09 11:27 | 46.85466 | 16.11278 | 36091 ft | 423 kts | 195° |
| 2026-05-09 11:27 | 46.79695 | 16.09816 | 36090 ft | 423 kts | 195° |
| 2026-05-09 11:28 | 46.73878 | 16.08345 | 36086 ft | 424 kts | 195° |
| 2026-05-09 11:28 | 46.68060 | 16.06876 | 36087 ft | 424 kts | 195° |
| 2026-05-09 11:29 | 46.62269 | 16.05419 | 36087 ft | 425 kts | 195° |
| 2026-05-09 11:29 | 46.56436 | 16.03954 | 36090 ft | 425 kts | 195° |
| 2026-05-09 11:30 | 46.50596 | 16.02490 | 36090 ft | 425 kts | 195° |
| 2026-05-09 11:30 | 46.44778 | 16.01035 | 36092 ft | 426 kts | 194° |
| 2026-05-09 11:31 | 46.38922 | 15.99573 | 36093 ft | 426 kts | 194° |
| 2026-05-09 11:31 | 46.33095 | 15.98122 | 36091 ft | 427 kts | 194° |
| 2026-05-09 11:32 | 46.27375 | 15.96016 | 36098 ft | 421 kts | 202° |
| 2026-05-09 11:32 | 46.21949 | 15.93408 | 36093 ft | 421 kts | 203° |
| 2026-05-09 11:33 | 46.16383 | 15.90736 | 36086 ft | 421 kts | 202° |
| 2026-05-09 11:33 | 46.08014 | 15.86788 | 36077 ft | 422 kts | 202° |
| 2026-05-09 11:34 | 46.02460 | 15.84189 | 36080 ft | 422 kts | 202° |
| 2026-05-09 11:34 | 45.96865 | 15.81576 | 36073 ft | 422 kts | 202° |
| 2026-05-09 11:35 | 45.91270 | 15.78970 | 36075 ft | 422 kts | 202° |
| 2026-05-09 11:35 | 45.85664 | 15.76362 | 36046 ft | 424 kts | 203° |
| 2026-05-09 11:36 | 45.80000 | 15.73731 | 36073 ft | 430 kts | 203° |
| 2026-05-09 11:36 | 45.74308 | 15.71094 | 36081 ft | 434 kts | 203° |
| 2026-05-09 11:37 | 45.68530 | 15.68425 | 36084 ft | 437 kts | 203° |
| 2026-05-09 11:37 | 45.62714 | 15.65745 | 36080 ft | 439 kts | 203° |
| 2026-05-09 11:38 | 45.56959 | 15.63101 | 36069 ft | 433 kts | 203° |
| 2026-05-09 11:38 | 45.51260 | 15.60484 | 36077 ft | 429 kts | 204° |
| 2026-05-09 11:39 | 45.45557 | 15.57868 | 36087 ft | 429 kts | 204° |
| 2026-05-09 11:40 | 45.36921 | 15.54353 | 36083 ft | 434 kts | 200° |
| 2026-05-09 11:40 | 45.31056 | 15.52229 | 36079 ft | 435 kts | 201° |
| 2026-05-09 11:41 | 45.25186 | 15.50076 | 36085 ft | 435 kts | 201° |
| 2026-05-09 11:41 | 45.19350 | 15.47904 | 36083 ft | 436 kts | 201° |
| 2026-05-09 11:42 | 45.13454 | 15.45701 | 36079 ft | 437 kts | 202° |
| 2026-05-09 11:42 | 45.07592 | 15.43513 | 36081 ft | 438 kts | 202° |
| 2026-05-09 11:43 | 45.01685 | 15.41314 | 36082 ft | 439 kts | 202° |
| 2026-05-09 11:43 | 44.95784 | 15.39122 | 36079 ft | 439 kts | 202° |
| 2026-05-09 11:44 | 44.89849 | 15.36924 | 36075 ft | 439 kts | 203° |
| 2026-05-09 11:44 | 44.83935 | 15.34737 | 36074 ft | 439 kts | 203° |
| 2026-05-09 11:45 | 44.78047 | 15.32564 | 36073 ft | 439 kts | 203° |
| 2026-05-09 11:45 | 44.72126 | 15.30384 | 36073 ft | 439 kts | 204° |
| 2026-05-09 11:46 | 44.66208 | 15.28209 | 36076 ft | 439 kts | 204° |
| 2026-05-09 11:46 | 44.60335 | 15.26056 | 36070 ft | 438 kts | 204° |
| 2026-05-09 11:47 | 44.54432 | 15.23896 | 36071 ft | 437 kts | 204° |
| 2026-05-09 11:47 | 44.48583 | 15.21748 | 36084 ft | 435 kts | 204° |
| 2026-05-09 11:48 | 44.42717 | 15.19593 | 36081 ft | 436 kts | 204° |
| 2026-05-09 11:48 | 44.36839 | 15.17472 | 36078 ft | 436 kts | 204° |
| 2026-05-09 11:49 | 44.30950 | 15.15345 | 36075 ft | 436 kts | 204° |
| 2026-05-09 11:49 | 44.25100 | 15.13229 | 36080 ft | 436 kts | 204° |
| 2026-05-09 11:50 | 44.19218 | 15.11102 | 36072 ft | 436 kts | 204° |
| 2026-05-09 11:50 | 44.13340 | 15.08982 | 36076 ft | 436 kts | 204° |
| 2026-05-09 11:51 | 44.07509 | 15.06883 | 36077 ft | 435 kts | 204° |
| 2026-05-09 11:51 | 44.01634 | 15.04772 | 36077 ft | 435 kts | 204° |
| 2026-05-09 11:52 | 43.95758 | 15.02666 | 36070 ft | 435 kts | 204° |
| 2026-05-09 11:52 | 43.89918 | 15.00578 | 36072 ft | 435 kts | 204° |
| 2026-05-09 11:53 | 43.84044 | 14.98481 | 36079 ft | 434 kts | 204° |
| 2026-05-09 11:53 | 43.78185 | 14.96393 | 36078 ft | 434 kts | 204° |
| 2026-05-09 11:54 | 43.72368 | 14.94325 | 36079 ft | 434 kts | 204° |
| 2026-05-09 11:54 | 43.66519 | 14.92249 | 36077 ft | 433 kts | 204° |
| 2026-05-09 11:55 | 43.60670 | 14.90178 | 36078 ft | 433 kts | 204° |
| 2026-05-09 11:56 | 43.43170 | 14.84004 | 36080 ft | 433 kts | 204° |
| 2026-05-09 11:57 | 43.37329 | 14.81950 | 36080 ft | 433 kts | 204° |
| 2026-05-09 11:57 | 43.31524 | 14.79914 | 36098 ft | 434 kts | 204° |
| 2026-05-09 11:58 | 43.25698 | 14.77615 | 36287 ft | 434 kts | 206° |
| 2026-05-09 11:58 | 43.22819 | 14.76369 | 36497 ft | 433 kts | 206° |
| 2026-05-09 11:58 | 43.19945 | 14.75115 | 36690 ft | 432 kts | 206° |
| 2026-05-09 11:58 | 43.17107 | 14.73882 | 36821 ft | 433 kts | 206° |
| 2026-05-09 11:59 | 43.14218 | 14.72638 | 36962 ft | 433 kts | 206° |
| 2026-05-09 11:59 | 43.11338 | 14.71410 | 37081 ft | 434 kts | 206° |
| 2026-05-09 11:59 | 43.08449 | 14.70184 | 37071 ft | 436 kts | 206° |
| 2026-05-09 12:00 | 43.02683 | 14.67756 | 37080 ft | 434 kts | 206° |
| 2026-05-09 12:00 | 42.96913 | 14.65338 | 37078 ft | 432 kts | 206° |
| 2026-05-09 12:01 | 42.91174 | 14.62935 | 37085 ft | 430 kts | 206° |
| 2026-05-09 12:01 | 42.85483 | 14.60554 | 37081 ft | 428 kts | 206° |
| 2026-05-09 12:02 | 42.79774 | 14.58169 | 37080 ft | 428 kts | 206° |
| 2026-05-09 12:02 | 42.74103 | 14.55805 | 37076 ft | 428 kts | 206° |
| 2026-05-09 12:03 | 42.68402 | 14.53433 | 37083 ft | 428 kts | 206° |
| 2026-05-09 12:03 | 42.62721 | 14.51074 | 37090 ft | 429 kts | 206° |
| 2026-05-09 12:04 | 42.56992 | 14.48699 | 37091 ft | 430 kts | 206° |
| 2026-05-09 12:04 | 42.51262 | 14.46330 | 37092 ft | 431 kts | 206° |
| 2026-05-09 12:05 | 42.45551 | 14.43973 | 37094 ft | 431 kts | 206° |
| 2026-05-09 12:05 | 42.39792 | 14.41601 | 37100 ft | 431 kts | 206° |
| 2026-05-09 12:06 | 42.34038 | 14.39236 | 37094 ft | 431 kts | 206° |
| 2026-05-09 12:06 | 42.28326 | 14.36892 | 37087 ft | 431 kts | 206° |
| 2026-05-09 12:07 | 42.22579 | 14.34539 | 37092 ft | 430 kts | 206° |
| 2026-05-09 12:07 | 42.16876 | 14.32207 | 37079 ft | 430 kts | 206° |
| 2026-05-09 12:08 | 42.11161 | 14.29877 | 37080 ft | 428 kts | 206° |
| 2026-05-09 12:08 | 42.05504 | 14.27574 | 37061 ft | 425 kts | 206° |
| 2026-05-09 12:09 | 41.99846 | 14.25275 | 37084 ft | 423 kts | 206° |
| 2026-05-09 12:09 | 41.94205 | 14.22984 | 37070 ft | 422 kts | 206° |
| 2026-05-09 12:10 | 41.83930 | 14.18825 | 37081 ft | 420 kts | 205° |
| 2026-05-09 12:11 | 41.77399 | 14.16188 | 37089 ft | 421 kts | 205° |
| 2026-05-09 12:11 | 41.72707 | 14.14296 | 37064 ft | 424 kts | 205° |
| 2026-05-09 12:12 | 41.67058 | 14.12023 | 37057 ft | 423 kts | 205° |
| 2026-05-09 12:12 | 41.61432 | 14.09765 | 37068 ft | 424 kts | 205° |
| 2026-05-09 12:13 | 41.55775 | 14.07498 | 37073 ft | 425 kts | 205° |
| 2026-05-09 12:13 | 41.50118 | 14.05234 | 37056 ft | 425 kts | 205° |
| 2026-05-09 12:14 | 41.44421 | 14.02960 | 37033 ft | 425 kts | 205° |
| 2026-05-09 12:14 | 41.38763 | 14.00704 | 37068 ft | 425 kts | 205° |
| 2026-05-09 12:15 | 41.33083 | 13.98445 | 37053 ft | 426 kts | 205° |
| 2026-05-09 12:15 | 41.27287 | 13.96735 | 37063 ft | 437 kts | 193° |
| 2026-05-09 12:16 | 41.21198 | 13.96172 | 37079 ft | 439 kts | 192° |
| 2026-05-09 12:16 | 41.15114 | 13.95671 | 37061 ft | 439 kts | 192° |
| 2026-05-09 12:17 | 41.09014 | 13.95129 | 37070 ft | 438 kts | 192° |
| 2026-05-09 12:17 | 41.02925 | 13.94561 | 37069 ft | 437 kts | 192° |
| 2026-05-09 12:18 | 40.96897 | 13.93991 | 37071 ft | 436 kts | 192° |
| 2026-05-09 12:18 | 40.90842 | 13.93417 | 37073 ft | 435 kts | 192° |
| 2026-05-09 12:19 | 40.84799 | 13.92847 | 37076 ft | 434 kts | 192° |
| 2026-05-09 12:19 | 40.78817 | 13.92284 | 37076 ft | 433 kts | 192° |
| 2026-05-09 12:20 | 40.72789 | 13.91718 | 37079 ft | 433 kts | 192° |
| 2026-05-09 12:20 | 40.66763 | 13.91152 | 37075 ft | 433 kts | 192° |
| 2026-05-09 12:21 | 40.60777 | 13.90592 | 37083 ft | 434 kts | 192° |
| 2026-05-09 12:21 | 40.54732 | 13.90027 | 37080 ft | 434 kts | 192° |
| 2026-05-09 12:22 | 40.48738 | 13.89469 | 37080 ft | 434 kts | 192° |
| 2026-05-09 12:22 | 40.42689 | 13.88905 | 37088 ft | 435 kts | 192° |
| 2026-05-09 12:23 | 40.36676 | 13.88347 | 37087 ft | 435 kts | 192° |
| 2026-05-09 12:23 | 40.30617 | 13.87785 | 37085 ft | 436 kts | 192° |
| 2026-05-09 12:24 | 40.24556 | 13.87224 | 37084 ft | 436 kts | 192° |
| 2026-05-09 12:24 | 40.18516 | 13.86666 | 37087 ft | 437 kts | 192° |
| 2026-05-09 12:25 | 40.12438 | 13.86106 | 37086 ft | 437 kts | 192° |
| 2026-05-09 12:25 | 40.06359 | 13.85547 | 37084 ft | 437 kts | 192° |
| 2026-05-09 12:26 | 40.00330 | 13.84993 | 37087 ft | 437 kts | 192° |
| 2026-05-09 12:26 | 39.94252 | 13.84436 | 37086 ft | 437 kts | 192° |
| 2026-05-09 12:27 | 39.88174 | 13.83879 | 37084 ft | 437 kts | 192° |
| 2026-05-09 12:27 | 39.82149 | 13.83328 | 37085 ft | 436 kts | 192° |
| 2026-05-09 12:28 | 39.76079 | 13.82775 | 37093 ft | 436 kts | 192° |
| 2026-05-09 12:28 | 39.70015 | 13.82222 | 37083 ft | 436 kts | 192° |
| 2026-05-09 12:29 | 39.63999 | 13.81675 | 37080 ft | 436 kts | 192° |
| 2026-05-09 12:29 | 39.57938 | 13.81125 | 37087 ft | 435 kts | 192° |
| 2026-05-09 12:30 | 39.51911 | 13.80578 | 37081 ft | 435 kts | 192° |
| 2026-05-09 12:30 | 39.42851 | 13.79672 | 37084 ft | 430 kts | 197° |
| 2026-05-09 12:31 | 39.34472 | 13.76278 | 37079 ft | 418 kts | 207° |
| 2026-05-09 12:32 | 39.29037 | 13.73745 | 37070 ft | 412 kts | 207° |
| 2026-05-09 12:32 | 39.26356 | 13.72520 | 36854 ft | 403 kts | 207° |
| 2026-05-09 12:32 | 39.23726 | 13.71323 | 36425 ft | 400 kts | 207° |
| 2026-05-09 12:32 | 39.21094 | 13.70125 | 35889 ft | 400 kts | 207° |
| 2026-05-09 12:33 | 39.18498 | 13.68946 | 35428 ft | 399 kts | 207° |
| 2026-05-09 12:33 | 39.15885 | 13.67763 | 35049 ft | 396 kts | 207° |
| 2026-05-09 12:33 | 39.13294 | 13.66594 | 34697 ft | 392 kts | 207° |
| 2026-05-09 12:33 | 39.10724 | 13.65434 | 34327 ft | 389 kts | 207° |
| 2026-05-09 12:34 | 39.08174 | 13.64283 | 33926 ft | 386 kts | 207° |
| 2026-05-09 12:34 | 39.05679 | 13.63157 | 33490 ft | 384 kts | 207° |
| 2026-05-09 12:34 | 39.03167 | 13.62024 | 33057 ft | 381 kts | 207° |
| 2026-05-09 12:34 | 39.00664 | 13.60897 | 32650 ft | 379 kts | 207° |
| 2026-05-09 12:35 | 38.98183 | 13.59779 | 32237 ft | 377 kts | 207° |
| 2026-05-09 12:35 | 38.95709 | 13.58667 | 31831 ft | 375 kts | 207° |
| 2026-05-09 12:35 | 38.93252 | 13.57561 | 31446 ft | 373 kts | 206° |
| 2026-05-09 12:35 | 38.90820 | 13.56470 | 30999 ft | 367 kts | 206° |
| 2026-05-09 12:36 | 38.88432 | 13.55397 | 30450 ft | 369 kts | 206° |
| 2026-05-09 12:36 | 38.86007 | 13.54308 | 30010 ft | 368 kts | 206° |
| 2026-05-09 12:36 | 38.83588 | 13.53226 | 29626 ft | 365 kts | 206° |
| 2026-05-09 12:36 | 38.81200 | 13.52159 | 29249 ft | 361 kts | 206° |
| 2026-05-09 12:37 | 38.78831 | 13.51101 | 28822 ft | 359 kts | 206° |
| 2026-05-09 12:37 | 38.76476 | 13.50047 | 28391 ft | 357 kts | 206° |
| 2026-05-09 12:37 | 38.74134 | 13.49000 | 27971 ft | 355 kts | 206° |
| 2026-05-09 12:37 | 38.71832 | 13.47972 | 27576 ft | 353 kts | 205° |
| 2026-05-09 12:38 | 38.69513 | 13.46936 | 27189 ft | 351 kts | 205° |
| 2026-05-09 12:38 | 38.67207 | 13.45907 | 26802 ft | 349 kts | 205° |
| 2026-05-09 12:38 | 38.64937 | 13.44894 | 26422 ft | 347 kts | 205° |
| 2026-05-09 12:38 | 38.62654 | 13.43877 | 26049 ft | 346 kts | 205° |
| 2026-05-09 12:39 | 38.60381 | 13.42865 | 25673 ft | 344 kts | 205° |
| 2026-05-09 12:39 | 38.58149 | 13.41871 | 25309 ft | 342 kts | 205° |
| 2026-05-09 12:39 | 38.55896 | 13.40869 | 24953 ft | 341 kts | 205° |
| 2026-05-09 12:39 | 38.53662 | 13.39876 | 24601 ft | 339 kts | 205° |
| 2026-05-09 12:40 | 38.51433 | 13.38886 | 24252 ft | 338 kts | 205° |
| 2026-05-09 12:40 | 38.49216 | 13.37901 | 23917 ft | 336 kts | 205° |
| 2026-05-09 12:40 | 38.47012 | 13.36923 | 23557 ft | 335 kts | 205° |
| 2026-05-09 12:40 | 38.44840 | 13.35961 | 23170 ft | 333 kts | 205° |
| 2026-05-09 12:41 | 38.42652 | 13.34991 | 22795 ft | 331 kts | 205° |
| 2026-05-09 12:41 | 38.40477 | 13.34028 | 22429 ft | 329 kts | 205° |
| 2026-05-09 12:41 | 38.38314 | 13.33072 | 22059 ft | 327 kts | 205° |
| 2026-05-09 12:41 | 38.36195 | 13.32134 | 21683 ft | 326 kts | 205° |
| 2026-05-09 12:42 | 38.34046 | 13.31184 | 21311 ft | 324 kts | 205° |
| 2026-05-09 12:42 | 38.31915 | 13.30243 | 20953 ft | 323 kts | 204° |
| 2026-05-09 12:42 | 38.29792 | 13.29306 | 20599 ft | 322 kts | 204° |
| 2026-05-09 12:42 | 38.27706 | 13.28386 | 20258 ft | 320 kts | 204° |
| 2026-05-09 12:43 | 38.25605 | 13.27459 | 19909 ft | 319 kts | 204° |
| 2026-05-09 12:43 | 38.23512 | 13.26537 | 19572 ft | 318 kts | 204° |
| 2026-05-09 12:43 | 38.21424 | 13.25617 | 19231 ft | 316 kts | 204° |
| 2026-05-09 12:43 | 38.19339 | 13.24700 | 18910 ft | 316 kts | 204° |
| 2026-05-09 12:44 | 38.17265 | 13.23787 | 18618 ft | 314 kts | 204° |
| 2026-05-09 12:44 | 38.15233 | 13.22894 | 18322 ft | 312 kts | 204° |
| 2026-05-09 12:44 | 38.13175 | 13.21989 | 17940 ft | 312 kts | 204° |
| 2026-05-09 12:44 | 38.11123 | 13.21088 | 17640 ft | 310 kts | 204° |
| 2026-05-09 12:45 | 38.09085 | 13.20194 | 17299 ft | 309 kts | 204° |
| 2026-05-09 12:45 | 38.07053 | 13.19302 | 16974 ft | 307 kts | 204° |
| 2026-05-09 12:45 | 38.05059 | 13.18430 | 16671 ft | 305 kts | 204° |
| 2026-05-09 12:45 | 38.03058 | 13.17536 | 16327 ft | 304 kts | 206° |
| 2026-05-09 12:46 | 38.01114 | 13.16498 | 16036 ft | 301 kts | 209° |
| 2026-05-09 12:46 | 37.99217 | 13.15403 | 15779 ft | 298 kts | 210° |
| 2026-05-09 12:46 | 37.97340 | 13.14305 | 15445 ft | 297 kts | 210° |
| 2026-05-09 12:46 | 37.95454 | 13.13205 | 15098 ft | 298 kts | 209° |
| 2026-05-09 12:47 | 37.93595 | 13.12129 | 14807 ft | 296 kts | 209° |
| 2026-05-09 12:47 | 37.91722 | 13.11051 | 14518 ft | 294 kts | 209° |
| 2026-05-09 12:47 | 37.89869 | 13.09989 | 14170 ft | 290 kts | 209° |
| 2026-05-09 12:47 | 37.88026 | 13.08936 | 13672 ft | 290 kts | 209° |
| 2026-05-09 12:48 | 37.86191 | 13.07890 | 13202 ft | 287 kts | 209° |
| 2026-05-09 12:48 | 37.84397 | 13.06870 | 12880 ft | 279 kts | 209° |
| 2026-05-09 12:48 | 37.82660 | 13.05882 | 12534 ft | 275 kts | 209° |
| 2026-05-09 12:48 | 37.80926 | 13.04895 | 12109 ft | 272 kts | 209° |
| 2026-05-09 12:49 | 37.79202 | 13.03917 | 11704 ft | 268 kts | 209° |
| 2026-05-09 12:49 | 37.77500 | 13.02948 | 11269 ft | 268 kts | 209° |
| 2026-05-09 12:49 | 37.75809 | 13.01985 | 10917 ft | 265 kts | 208° |
| 2026-05-09 12:49 | 37.74135 | 13.01035 | 10555 ft | 262 kts | 208° |
| 2026-05-09 12:50 | 37.72467 | 13.00087 | 10079 ft | 264 kts | 208° |
| 2026-05-09 12:50 | 37.70787 | 12.99133 | 9599 ft | 265 kts | 208° |
| 2026-05-09 12:50 | 37.69128 | 12.98155 | 9088 ft | 265 kts | 215° |
| 2026-05-09 12:50 | 37.67839 | 12.96552 | 8588 ft | 260 kts | 240° |
| 2026-05-09 12:51 | 37.67098 | 12.94470 | 8099 ft | 260 kts | 252° |
| 2026-05-09 12:51 | 37.66554 | 12.92287 | 7630 ft | 261 kts | 255° |
| 2026-05-09 12:51 | 37.66441 | 12.90012 | 7127 ft | 263 kts | 278° |
| 2026-05-09 12:51 | 37.67037 | 12.87820 | 6665 ft | 266 kts | 298° |
| 2026-05-09 12:52 | 37.68223 | 12.86005 | 6191 ft | 270 kts | 312° |
| 2026-05-09 12:52 | 37.69521 | 12.84285 | 5705 ft | 270 kts | 308° |
| 2026-05-09 12:52 | 37.70721 | 12.82450 | 5209 ft | 271 kts | 306° |
| 2026-05-09 12:52 | 37.71859 | 12.80587 | 4751 ft | 272 kts | 305° |
| 2026-05-09 12:53 | 37.73007 | 12.78685 | 4274 ft | 272 kts | 306° |
| 2026-05-09 12:53 | 37.74151 | 12.76787 | 3847 ft | 271 kts | 306° |
| 2026-05-09 12:53 | 37.75298 | 12.74888 | 3423 ft | 270 kts | 307° |
| 2026-05-09 12:53 | 37.76437 | 12.73013 | 3078 ft | 266 kts | 307° |
| 2026-05-09 12:54 | 37.77531 | 12.71210 | 2979 ft | 250 kts | 307° |
| 2026-05-09 12:54 | 37.78551 | 12.69524 | 2994 ft | 234 kts | 307° |
| 2026-05-09 12:54 | 37.79512 | 12.67943 | 2991 ft | 221 kts | 307° |
| 2026-05-09 12:54 | 37.80462 | 12.66378 | 2898 ft | 226 kts | 308° |
| 2026-05-09 12:55 | 37.81417 | 12.64816 | 2791 ft | 230 kts | 306° |
| 2026-05-09 12:55 | 37.82372 | 12.63220 | 2605 ft | 225 kts | 308° |
| 2026-05-09 12:55 | 37.83325 | 12.61656 | 2330 ft | 221 kts | 308° |
| 2026-05-09 12:55 | 37.84252 | 12.60142 | 2042 ft | 217 kts | 307° |
| 2026-05-09 12:56 | 37.85149 | 12.58651 | 1779 ft | 208 kts | 306° |
| 2026-05-09 12:56 | 37.86010 | 12.57227 | 1487 ft | 197 kts | 308° |
| 2026-05-09 12:56 | 37.86815 | 12.55898 | 1276 ft | 183 kts | 307° |
| 2026-05-09 12:56 | 37.87573 | 12.54681 | 1007 ft | 168 kts | 307° |
| 2026-05-09 12:57 | 37.88241 | 12.53550 | 787 ft | 154 kts | 307° |
| 2026-05-09 12:57 | 37.88857 | 12.52507 | 617 ft | 146 kts | 309° |
| 2026-05-09 12:57 | 37.89483 | 12.51486 | 402 ft | 148 kts | 309° |
| 2026-05-09 12:57 | 37.90123 | 12.50450 | 215 ft | 150 kts | 309° |
| 2026-05-09 12:58 | 37.90753 | 12.49415 | 38 ft | 144 kts | 310° |
| 2026-05-09 12:58 | 37.91131 | 12.48814 | 27 ft | 113 kts | 307° |
| 2026-05-09 12:58 | 37.91477 | 12.48245 | 20 ft | 50 kts | 308° |
| 2026-05-09 12:58 | 37.91594 | 12.48030 | 15 ft | 14 kts | 298° |
| 2026-05-09 12:59 | 37.91613 | 12.48035 | 16 ft | 2 kts | 88° |
| 2026-05-09 12:59 | 37.91603 | 12.48052 | 17 ft | 3 kts | 128° |
| 2026-05-09 12:59 | 37.91592 | 12.48071 | 18 ft | 5 kts | 128° |
| 2026-05-09 12:59 | 37.91545 | 12.48144 | 19 ft | 17 kts | 128° |
| 2026-05-09 13:00 | 37.91446 | 12.48303 | 21 ft | 29 kts | 128° |
| 2026-05-09 13:00 | 37.91306 | 12.48526 | 26 ft | 36 kts | 128° |
| 2026-05-09 13:00 | 37.91142 | 12.48793 | 27 ft | 39 kts | 127° |
| 2026-05-09 13:00 | 37.90982 | 12.49057 | 27 ft | 36 kts | 129° |
| 2026-05-09 13:01 | 37.90841 | 12.49281 | 31 ft | 26 kts | 128° |
| 2026-05-09 13:01 | 37.90720 | 12.49415 | 33 ft | 22 kts | 151° |
| 2026-05-09 13:01 | 37.90588 | 12.49485 | 35 ft | 18 kts | 158° |
| 2026-05-09 13:01 | 37.90481 | 12.49542 | 32 ft | 14 kts | 162° |
| 2026-05-09 13:02 | 37.90395 | 12.49542 | 30 ft | 11 kts | 152° |
| 2026-05-09 13:02 | 37.90349 | 12.49610 | 31 ft | 9 kts | 128° |
| 2026-05-09 13:02 | 37.90311 | 12.49673 | 30 ft | 8 kts | 130° |
| 2026-05-09 13:02 | 37.90273 | 12.49717 | 29 ft | 6 kts | 140° |
| 2026-05-09 13:03 | 37.90255 | 12.49718 | 29 ft | 2 kts | 218° |
| 2026-05-09 13:03 | 37.90249 | 12.49699 | 29 ft | 2 kts | 256° |
| 2026-05-09 13:03 | 37.90247 | 12.49679 | 29 ft | 2 kts | 261° |
| 2026-05-09 13:03 | 37.90245 | 12.49663 | 29 ft | 1 kts | 261° |
| 2026-05-09 13:04 | 37.90245 | 12.49660 | 29 ft | 0 kts | 261° |